sensor_id;sensor_type;location;lat;lon;timestamp;P1;durP1;ratioP1;P2;durP2;ratioP2
11823;SDS011;5969;50.780;7.726;2023-04-29T00:01:39;13.80;;;12.43;;
11823;SDS011;5969;50.780;7.726;2023-04-29T00:04:06;13.77;;;12.48;;
11823;SDS011;5969;50.780;7.726;2023-04-29T00:06:33;15.30;;;13.90;;
11823;SDS011;5969;50.780;7.726;2023-04-29T00:09:01;15.00;;;13.50;;
11823;SDS011;5969;50.780;7.726;2023-04-29T00:11:30;16.58;;;15.00;;
11823;SDS011;5969;50.780;7.726;2023-04-29T00:13:57;16.15;;;14.48;;
11823;SDS011;5969;50.780;7.726;2023-04-29T00:16:26;17.02;;;15.30;;
11823;SDS011;5969;50.780;7.726;2023-04-29T00:18:52;17.15;;;15.55;;
11823;SDS011;5969;50.780;7.726;2023-04-29T00:21:19;17.33;;;15.73;;
11823;SDS011;5969;50.780;7.726;2023-04-29T00:23:46;16.30;;;14.70;;
11823;SDS011;5969;50.780;7.726;2023-04-29T00:26:13;16.27;;;14.80;;
11823;SDS011;5969;50.780;7.726;2023-04-29T00:28:43;15.85;;;14.45;;
11823;SDS011;5969;50.780;7.726;2023-04-29T00:31:09;17.02;;;15.52;;
11823;SDS011;5969;50.780;7.726;2023-04-29T00:33:37;16.75;;;15.15;;
11823;SDS011;5969;50.780;7.726;2023-04-29T00:36:04;18.08;;;16.27;;
11823;SDS011;5969;50.780;7.726;2023-04-29T00:38:36;19.25;;;17.42;;
11823;SDS011;5969;50.780;7.726;2023-04-29T00:41:03;16.60;;;15.15;;
11823;SDS011;5969;50.780;7.726;2023-04-29T00:43:30;16.23;;;14.73;;
11823;SDS011;5969;50.780;7.726;2023-04-29T00:45:58;16.10;;;14.60;;
11823;SDS011;5969;50.780;7.726;2023-04-29T00:48:25;13.35;;;12.05;;
11823;SDS011;5969;50.780;7.726;2023-04-29T00:50:52;15.52;;;14.02;;
11823;SDS011;5969;50.780;7.726;2023-04-29T00:56:08;16.00;;;14.43;;
11823;SDS011;5969;50.780;7.726;2023-04-29T00:58:35;18.00;;;16.23;;
11823;SDS011;5969;50.780;7.726;2023-04-29T01:01:07;16.20;;;14.55;;
11823;SDS011;5969;50.780;7.726;2023-04-29T01:03:34;13.80;;;12.40;;
11823;SDS011;5969;50.780;7.726;2023-04-29T01:06:04;13.30;;;11.70;;
11823;SDS011;5969;50.780;7.726;2023-04-29T01:08:37;11.07;;;9.88;;
11823;SDS011;5969;50.780;7.726;2023-04-29T01:11:12;11.85;;;10.48;;
11823;SDS011;5969;50.780;7.726;2023-04-29T01:13:42;11.90;;;9.77;;
11823;SDS011;5969;50.780;7.726;2023-04-29T01:16:16;11.43;;;10.23;;
11823;SDS011;5969;50.780;7.726;2023-04-29T01:18:48;10.77;;;9.68;;
11823;SDS011;5969;50.780;7.726;2023-04-29T01:21:26;12.43;;;9.80;;
11823;SDS011;5969;50.780;7.726;2023-04-29T01:23:57;10.85;;;9.77;;
11823;SDS011;5969;50.780;7.726;2023-04-29T01:26:24;10.85;;;9.73;;
11823;SDS011;5969;50.780;7.726;2023-04-29T01:28:53;10.43;;;9.43;;
11823;SDS011;5969;50.780;7.726;2023-04-29T01:31:30;10.10;;;9.05;;
11823;SDS011;5969;50.780;7.726;2023-04-29T01:34:05;9.82;;;8.82;;
11823;SDS011;5969;50.780;7.726;2023-04-29T01:36:36;10.63;;;9.13;;
11823;SDS011;5969;50.780;7.726;2023-04-29T01:39:13;11.23;;;8.95;;
11823;SDS011;5969;50.780;7.726;2023-04-29T01:41:49;10.05;;;8.25;;
11823;SDS011;5969;50.780;7.726;2023-04-29T01:44:21;10.25;;;8.63;;
11823;SDS011;5969;50.780;7.726;2023-04-29T01:46:50;10.02;;;8.63;;
11823;SDS011;5969;50.780;7.726;2023-04-29T01:49:19;10.38;;;8.38;;
11823;SDS011;5969;50.780;7.726;2023-04-29T01:51:46;9.27;;;8.00;;
11823;SDS011;5969;50.780;7.726;2023-04-29T01:54:14;9.18;;;7.97;;
11823;SDS011;5969;50.780;7.726;2023-04-29T01:56:41;8.93;;;7.70;;
11823;SDS011;5969;50.780;7.726;2023-04-29T01:59:09;8.52;;;7.05;;
11823;SDS011;5969;50.780;7.726;2023-04-29T02:04:34;7.80;;;6.88;;
11823;SDS011;5969;50.780;7.726;2023-04-29T02:07:02;7.35;;;6.22;;
11823;SDS011;5969;50.780;7.726;2023-04-29T02:09:30;6.88;;;6.18;;
11823;SDS011;5969;50.780;7.726;2023-04-29T02:11:57;7.55;;;6.85;;
11823;SDS011;5969;50.780;7.726;2023-04-29T02:14:24;7.60;;;6.55;;
11823;SDS011;5969;50.780;7.726;2023-04-29T02:16:51;8.15;;;6.75;;
11823;SDS011;5969;50.780;7.726;2023-04-29T02:19:18;8.38;;;7.57;;
11823;SDS011;5969;50.780;7.726;2023-04-29T02:21:45;8.80;;;7.85;;
11823;SDS011;5969;50.780;7.726;2023-04-29T02:24:12;8.25;;;7.40;;
11823;SDS011;5969;50.780;7.726;2023-04-29T02:26:41;8.52;;;7.63;;
11823;SDS011;5969;50.780;7.726;2023-04-29T02:29:08;11.40;;;8.55;;
11823;SDS011;5969;50.780;7.726;2023-04-29T02:31:35;8.77;;;7.43;;
11823;SDS011;5969;50.780;7.726;2023-04-29T02:34:02;10.30;;;9.20;;
11823;SDS011;5969;50.780;7.726;2023-04-29T02:36:29;10.10;;;8.60;;
11823;SDS011;5969;50.780;7.726;2023-04-29T02:38:56;11.20;;;8.82;;
11823;SDS011;5969;50.780;7.726;2023-04-29T02:41:24;11.95;;;8.73;;
11823;SDS011;5969;50.780;7.726;2023-04-29T02:43:52;9.48;;;8.48;;
11823;SDS011;5969;50.780;7.726;2023-04-29T02:46:19;9.20;;;8.20;;
11823;SDS011;5969;50.780;7.726;2023-04-29T02:48:46;9.65;;;8.15;;
11823;SDS011;5969;50.780;7.726;2023-04-29T02:51:13;10.93;;;9.77;;
11823;SDS011;5969;50.780;7.726;2023-04-29T02:53:40;13.80;;;10.75;;
11823;SDS011;5969;50.780;7.726;2023-04-29T02:56:07;13.45;;;11.68;;
11823;SDS011;5969;50.780;7.726;2023-04-29T02:58:35;12.98;;;11.23;;
11823;SDS011;5969;50.780;7.726;2023-04-29T03:01:04;13.27;;;11.73;;
11823;SDS011;5969;50.780;7.726;2023-04-29T03:03:31;14.50;;;12.70;;
11823;SDS011;5969;50.780;7.726;2023-04-29T03:05:58;15.90;;;11.80;;
11823;SDS011;5969;50.780;7.726;2023-04-29T03:08:24;13.90;;;12.27;;
11823;SDS011;5969;50.780;7.726;2023-04-29T03:10:52;16.02;;;12.57;;
11823;SDS011;5969;50.780;7.726;2023-04-29T03:13:18;14.57;;;12.45;;
11823;SDS011;5969;50.780;7.726;2023-04-29T03:15:45;15.05;;;12.85;;
11823;SDS011;5969;50.780;7.726;2023-04-29T03:18:13;15.65;;;13.48;;
11823;SDS011;5969;50.780;7.726;2023-04-29T03:20:40;15.27;;;13.23;;
11823;SDS011;5969;50.780;7.726;2023-04-29T03:23:07;19.48;;;14.40;;
11823;SDS011;5969;50.780;7.726;2023-04-29T03:25:34;17.55;;;13.80;;
11823;SDS011;5969;50.780;7.726;2023-04-29T03:28:01;16.00;;;13.68;;
11823;SDS011;5969;50.780;7.726;2023-04-29T03:30:28;16.38;;;14.57;;
11823;SDS011;5969;50.780;7.726;2023-04-29T03:32:55;17.48;;;14.38;;
11823;SDS011;5969;50.780;7.726;2023-04-29T03:35:23;16.45;;;14.55;;
11823;SDS011;5969;50.780;7.726;2023-04-29T03:37:50;16.95;;;13.23;;
11823;SDS011;5969;50.780;7.726;2023-04-29T03:40:32;15.57;;;13.73;;
11823;SDS011;5969;50.780;7.726;2023-04-29T03:43:00;17.17;;;14.27;;
11823;SDS011;5969;50.780;7.726;2023-04-29T03:45:27;18.50;;;16.00;;
11823;SDS011;5969;50.780;7.726;2023-04-29T03:47:54;20.38;;;16.70;;
11823;SDS011;5969;50.780;7.726;2023-04-29T03:50:23;24.48;;;16.67;;
11823;SDS011;5969;50.780;7.726;2023-04-29T03:52:50;19.23;;;16.02;;
11823;SDS011;5969;50.780;7.726;2023-04-29T03:55:17;23.02;;;17.98;;
11823;SDS011;5969;50.780;7.726;2023-04-29T03:57:44;23.27;;;18.98;;
11823;SDS011;5969;50.780;7.726;2023-04-29T04:00:11;25.25;;;19.27;;
11823;SDS011;5969;50.780;7.726;2023-04-29T04:02:39;25.33;;;19.63;;
11823;SDS011;5969;50.780;7.726;2023-04-29T04:05:06;25.75;;;20.85;;
11823;SDS011;5969;50.780;7.726;2023-04-29T04:07:34;24.17;;;20.40;;
11823;SDS011;5969;50.780;7.726;2023-04-29T04:10:01;28.95;;;22.75;;
11823;SDS011;5969;50.780;7.726;2023-04-29T04:12:28;25.15;;;21.27;;
11823;SDS011;5969;50.780;7.726;2023-04-29T04:14:54;28.17;;;21.90;;
11823;SDS011;5969;50.780;7.726;2023-04-29T04:17:23;27.60;;;22.08;;
11823;SDS011;5969;50.780;7.726;2023-04-29T04:19:49;27.17;;;22.23;;
11823;SDS011;5969;50.780;7.726;2023-04-29T04:22:16;27.25;;;21.50;;
11823;SDS011;5969;50.780;7.726;2023-04-29T04:24:46;25.05;;;20.52;;
11823;SDS011;5969;50.780;7.726;2023-04-29T04:27:12;27.92;;;21.83;;
11823;SDS011;5969;50.780;7.726;2023-04-29T04:29:39;27.17;;;21.17;;
11823;SDS011;5969;50.780;7.726;2023-04-29T04:32:06;25.77;;;21.05;;
11823;SDS011;5969;50.780;7.726;2023-04-29T04:34:33;28.40;;;20.92;;
11823;SDS011;5969;50.780;7.726;2023-04-29T04:37:00;28.48;;;20.75;;
11823;SDS011;5969;50.780;7.726;2023-04-29T04:39:27;29.60;;;22.55;;
11823;SDS011;5969;50.780;7.726;2023-04-29T04:41:55;30.27;;;21.80;;
11823;SDS011;5969;50.780;7.726;2023-04-29T04:44:22;28.13;;;21.75;;
11823;SDS011;5969;50.780;7.726;2023-04-29T04:46:49;28.50;;;21.98;;
11823;SDS011;5969;50.780;7.726;2023-04-29T04:49:16;28.00;;;20.52;;
11823;SDS011;5969;50.780;7.726;2023-04-29T04:51:43;32.22;;;23.13;;
11823;SDS011;5969;50.780;7.726;2023-04-29T04:54:10;29.58;;;22.25;;
11823;SDS011;5969;50.780;7.726;2023-04-29T04:56:37;31.95;;;22.08;;
11823;SDS011;5969;50.780;7.726;2023-04-29T04:59:05;30.00;;;23.00;;
11823;SDS011;5969;50.780;7.726;2023-04-29T05:01:33;32.05;;;22.70;;
11823;SDS011;5969;50.780;7.726;2023-04-29T05:04:00;31.60;;;23.75;;
11823;SDS011;5969;50.780;7.726;2023-04-29T05:06:27;32.30;;;24.08;;
11823;SDS011;5969;50.780;7.726;2023-04-29T05:08:54;29.90;;;23.20;;
11823;SDS011;5969;50.780;7.726;2023-04-29T05:11:21;31.20;;;23.98;;
11823;SDS011;5969;50.780;7.726;2023-04-29T05:13:48;31.02;;;22.67;;
11823;SDS011;5969;50.780;7.726;2023-04-29T05:16:16;30.08;;;22.98;;
11823;SDS011;5969;50.780;7.726;2023-04-29T05:18:43;29.92;;;23.35;;
11823;SDS011;5969;50.780;7.726;2023-04-29T05:21:10;31.50;;;23.52;;
11823;SDS011;5969;50.780;7.726;2023-04-29T05:23:37;30.80;;;23.05;;
11823;SDS011;5969;50.780;7.726;2023-04-29T05:26:04;30.35;;;23.98;;
11823;SDS011;5969;50.780;7.726;2023-04-29T05:28:31;30.80;;;21.38;;
11823;SDS011;5969;50.780;7.726;2023-04-29T05:30:58;30.05;;;21.00;;
11823;SDS011;5969;50.780;7.726;2023-04-29T05:33:26;29.27;;;22.00;;
11823;SDS011;5969;50.780;7.726;2023-04-29T05:35:53;28.88;;;20.17;;
11823;SDS011;5969;50.780;7.726;2023-04-29T05:38:20;29.75;;;20.25;;
11823;SDS011;5969;50.780;7.726;2023-04-29T05:40:52;29.50;;;20.15;;
11823;SDS011;5969;50.780;7.726;2023-04-29T05:43:20;31.70;;;20.92;;
11823;SDS011;5969;50.780;7.726;2023-04-29T05:45:46;31.55;;;20.65;;
11823;SDS011;5969;50.780;7.726;2023-04-29T05:48:13;30.80;;;20.83;;
11823;SDS011;5969;50.780;7.726;2023-04-29T05:50:42;32.50;;;22.00;;
11823;SDS011;5969;50.780;7.726;2023-04-29T05:53:09;28.92;;;20.20;;
11823;SDS011;5969;50.780;7.726;2023-04-29T05:55:41;30.08;;;20.58;;
11823;SDS011;5969;50.780;7.726;2023-04-29T05:58:09;32.45;;;21.80;;
11823;SDS011;5969;50.780;7.726;2023-04-29T06:00:36;29.42;;;21.05;;
11823;SDS011;5969;50.780;7.726;2023-04-29T06:03:03;27.25;;;19.85;;
11823;SDS011;5969;50.780;7.726;2023-04-29T06:05:30;31.80;;;21.25;;
11823;SDS011;5969;50.780;7.726;2023-04-29T06:07:59;27.63;;;20.30;;
11823;SDS011;5969;50.780;7.726;2023-04-29T06:10:26;25.98;;;20.05;;
11823;SDS011;5969;50.780;7.726;2023-04-29T06:12:53;29.40;;;19.75;;
11823;SDS011;5969;50.780;7.726;2023-04-29T06:15:20;27.52;;;19.92;;
11823;SDS011;5969;50.780;7.726;2023-04-29T06:17:47;28.67;;;19.90;;
11823;SDS011;5969;50.780;7.726;2023-04-29T06:20:15;27.20;;;19.45;;
11823;SDS011;5969;50.780;7.726;2023-04-29T06:22:42;28.75;;;19.58;;
11823;SDS011;5969;50.780;7.726;2023-04-29T06:25:11;27.85;;;19.65;;
11823;SDS011;5969;50.780;7.726;2023-04-29T06:27:38;26.98;;;19.05;;
11823;SDS011;5969;50.780;7.726;2023-04-29T06:30:08;20.77;;;17.38;;
11823;SDS011;5969;50.780;7.726;2023-04-29T06:32:36;19.65;;;15.57;;
11823;SDS011;5969;50.780;7.726;2023-04-29T06:35:04;20.15;;;15.52;;
11823;SDS011;5969;50.780;7.726;2023-04-29T06:37:32;21.73;;;15.77;;
11823;SDS011;5969;50.780;7.726;2023-04-29T06:39:59;22.00;;;15.52;;
11823;SDS011;5969;50.780;7.726;2023-04-29T06:42:27;19.40;;;13.88;;
11823;SDS011;5969;50.780;7.726;2023-04-29T06:44:54;20.13;;;14.82;;
11823;SDS011;5969;50.780;7.726;2023-04-29T06:47:21;18.73;;;14.25;;
11823;SDS011;5969;50.780;7.726;2023-04-29T06:49:48;18.30;;;14.65;;
11823;SDS011;5969;50.780;7.726;2023-04-29T06:52:16;18.60;;;13.80;;
11823;SDS011;5969;50.780;7.726;2023-04-29T06:54:43;17.65;;;13.68;;
11823;SDS011;5969;50.780;7.726;2023-04-29T06:57:11;19.48;;;14.40;;
11823;SDS011;5969;50.780;7.726;2023-04-29T06:59:39;18.85;;;14.57;;
11823;SDS011;5969;50.780;7.726;2023-04-29T07:02:06;17.58;;;14.63;;
11823;SDS011;5969;50.780;7.726;2023-04-29T07:04:33;21.80;;;14.60;;
11823;SDS011;5969;50.780;7.726;2023-04-29T07:07:07;16.05;;;13.23;;
11823;SDS011;5969;50.780;7.726;2023-04-29T07:09:34;14.90;;;13.25;;
11823;SDS011;5969;50.780;7.726;2023-04-29T07:12:01;18.05;;;13.85;;
11823;SDS011;5969;50.780;7.726;2023-04-29T07:14:29;18.15;;;14.20;;
11823;SDS011;5969;50.780;7.726;2023-04-29T07:16:58;18.42;;;14.88;;
11823;SDS011;5969;50.780;7.726;2023-04-29T07:22:21;15.88;;;13.18;;
11823;SDS011;5969;50.780;7.726;2023-04-29T07:24:48;17.98;;;12.77;;
11823;SDS011;5969;50.780;7.726;2023-04-29T07:27:19;18.52;;;13.70;;
11823;SDS011;5969;50.780;7.726;2023-04-29T07:29:46;16.73;;;14.32;;
11823;SDS011;5969;50.780;7.726;2023-04-29T07:32:15;17.67;;;14.00;;
11823;SDS011;5969;50.780;7.726;2023-04-29T07:34:42;17.02;;;13.63;;
11823;SDS011;5969;50.780;7.726;2023-04-29T07:37:11;18.65;;;14.48;;
11823;SDS011;5969;50.780;7.726;2023-04-29T07:39:38;17.50;;;14.30;;
11823;SDS011;5969;50.780;7.726;2023-04-29T07:42:06;17.90;;;13.85;;
11823;SDS011;5969;50.780;7.726;2023-04-29T07:44:33;17.65;;;14.00;;
11823;SDS011;5969;50.780;7.726;2023-04-29T07:47:00;17.45;;;14.57;;
11823;SDS011;5969;50.780;7.726;2023-04-29T07:49:28;19.35;;;14.70;;
11823;SDS011;5969;50.780;7.726;2023-04-29T07:51:55;17.27;;;14.52;;
11823;SDS011;5969;50.780;7.726;2023-04-29T07:54:22;17.58;;;14.35;;
11823;SDS011;5969;50.780;7.726;2023-04-29T07:59:19;19.55;;;14.10;;
11823;SDS011;5969;50.780;7.726;2023-04-29T08:01:46;17.38;;;13.80;;
11823;SDS011;5969;50.780;7.726;2023-04-29T08:04:13;15.85;;;13.43;;
11823;SDS011;5969;50.780;7.726;2023-04-29T08:06:41;15.40;;;13.73;;
11823;SDS011;5969;50.780;7.726;2023-04-29T08:09:08;15.50;;;12.57;;
11823;SDS011;5969;50.780;7.726;2023-04-29T08:11:35;15.27;;;13.57;;
11823;SDS011;5969;50.780;7.726;2023-04-29T08:14:04;15.82;;;14.10;;
11823;SDS011;5969;50.780;7.726;2023-04-29T08:16:30;15.48;;;13.50;;
11823;SDS011;5969;50.780;7.726;2023-04-29T08:19:00;15.18;;;13.60;;
11823;SDS011;5969;50.780;7.726;2023-04-29T08:21:27;15.77;;;12.70;;
11823;SDS011;5969;50.780;7.726;2023-04-29T08:23:58;15.45;;;12.60;;
11823;SDS011;5969;50.780;7.726;2023-04-29T08:26:25;13.32;;;11.40;;
11823;SDS011;5969;50.780;7.726;2023-04-29T08:28:54;12.45;;;11.20;;
11823;SDS011;5969;50.780;7.726;2023-04-29T08:31:21;14.13;;;12.73;;
11823;SDS011;5969;50.780;7.726;2023-04-29T08:33:55;13.15;;;11.90;;
11823;SDS011;5969;50.780;7.726;2023-04-29T08:36:22;13.40;;;11.85;;
11823;SDS011;5969;50.780;7.726;2023-04-29T08:38:53;12.35;;;11.18;;
11823;SDS011;5969;50.780;7.726;2023-04-29T08:41:24;11.45;;;10.30;;
11823;SDS011;5969;50.780;7.726;2023-04-29T08:43:57;12.02;;;10.82;;
11823;SDS011;5969;50.780;7.726;2023-04-29T08:46:27;10.68;;;9.63;;
11823;SDS011;5969;50.780;7.726;2023-04-29T08:48:57;10.35;;;9.35;;
11823;SDS011;5969;50.780;7.726;2023-04-29T08:51:29;10.57;;;9.40;;
11823;SDS011;5969;50.780;7.726;2023-04-29T08:54:03;9.38;;;8.48;;
11823;SDS011;5969;50.780;7.726;2023-04-29T08:56:30;9.57;;;8.60;;
11823;SDS011;5969;50.780;7.726;2023-04-29T08:59:01;9.25;;;8.35;;
11823;SDS011;5969;50.780;7.726;2023-04-29T09:01:30;7.82;;;7.13;;
11823;SDS011;5969;50.780;7.726;2023-04-29T09:04:09;7.63;;;6.93;;
11823;SDS011;5969;50.780;7.726;2023-04-29T09:06:46;7.90;;;7.10;;
11823;SDS011;5969;50.780;7.726;2023-04-29T09:09:31;7.57;;;6.88;;
11823;SDS011;5969;50.780;7.726;2023-04-29T09:12:18;8.68;;;6.90;;
11823;SDS011;5969;50.780;7.726;2023-04-29T09:14:52;7.45;;;6.75;;
11823;SDS011;5969;50.780;7.726;2023-04-29T09:17:33;8.05;;;7.25;;
11823;SDS011;5969;50.780;7.726;2023-04-29T09:22:58;8.05;;;6.25;;
11823;SDS011;5969;50.780;7.726;2023-04-29T09:25:29;6.80;;;6.15;;
11823;SDS011;5969;50.780;7.726;2023-04-29T09:27:56;7.43;;;6.72;;
11823;SDS011;5969;50.780;7.726;2023-04-29T09:30:23;8.05;;;7.25;;
11823;SDS011;5969;50.780;7.726;2023-04-29T09:33:04;7.90;;;7.10;;
11823;SDS011;5969;50.780;7.726;2023-04-29T09:35:35;8.73;;;7.13;;
11823;SDS011;5969;50.780;7.726;2023-04-29T09:38:09;8.65;;;7.75;;
11823;SDS011;5969;50.780;7.726;2023-04-29T09:40:44;8.85;;;7.07;;
11823;SDS011;5969;50.780;7.726;2023-04-29T09:43:12;8.35;;;7.45;;
11823;SDS011;5969;50.780;7.726;2023-04-29T09:45:44;9.95;;;8.60;;
11823;SDS011;5969;50.780;7.726;2023-04-29T09:48:13;12.25;;;9.88;;
11823;SDS011;5969;50.780;7.726;2023-04-29T09:50:42;12.85;;;11.27;;
11823;SDS011;5969;50.780;7.726;2023-04-29T09:53:27;12.15;;;10.35;;
11823;SDS011;5969;50.780;7.726;2023-04-29T09:56:03;11.40;;;9.77;;
11823;SDS011;5969;50.780;7.726;2023-04-29T09:58:34;11.13;;;9.88;;
11823;SDS011;5969;50.780;7.726;2023-04-29T10:01:03;10.25;;;9.15;;
11823;SDS011;5969;50.780;7.726;2023-04-29T10:03:31;10.23;;;9.18;;
11823;SDS011;5969;50.780;7.726;2023-04-29T10:06:07;10.05;;;9.05;;
11823;SDS011;5969;50.780;7.726;2023-04-29T10:08:52;10.27;;;8.75;;
11823;SDS011;5969;50.780;7.726;2023-04-29T10:11:27;11.27;;;8.73;;
11823;SDS011;5969;50.780;7.726;2023-04-29T10:14:01;9.30;;;8.40;;
11823;SDS011;5969;50.780;7.726;2023-04-29T10:16:38;9.07;;;8.13;;
11823;SDS011;5969;50.780;7.726;2023-04-29T10:19:18;8.80;;;7.90;;
11823;SDS011;5969;50.780;7.726;2023-04-29T10:21:55;10.48;;;9.40;;
11823;SDS011;5969;50.780;7.726;2023-04-29T10:24:25;12.38;;;10.77;;
11823;SDS011;5969;50.780;7.726;2023-04-29T10:26:59;11.05;;;9.95;;
11823;SDS011;5969;50.780;7.726;2023-04-29T10:29:27;12.00;;;10.10;;
11823;SDS011;5969;50.780;7.726;2023-04-29T10:31:59;11.07;;;9.73;;
11823;SDS011;5969;50.780;7.726;2023-04-29T10:34:27;11.43;;;10.23;;
11823;SDS011;5969;50.780;7.726;2023-04-29T10:36:57;12.60;;;10.68;;
11823;SDS011;5969;50.780;7.726;2023-04-29T10:39:28;12.45;;;11.15;;
11823;SDS011;5969;50.780;7.726;2023-04-29T10:42:02;12.82;;;11.48;;
11823;SDS011;5969;50.780;7.726;2023-04-29T10:47:42;13.02;;;11.73;;
11823;SDS011;5969;50.780;7.726;2023-04-29T10:53:27;11.77;;;10.65;;
11823;SDS011;5969;50.780;7.726;2023-04-29T10:55:55;12.85;;;11.55;;
11823;SDS011;5969;50.780;7.726;2023-04-29T10:58:44;14.18;;;12.68;;
11823;SDS011;5969;50.780;7.726;2023-04-29T11:01:12;14.93;;;13.25;;
11823;SDS011;5969;50.780;7.726;2023-04-29T11:03:44;15.65;;;14.00;;
11823;SDS011;5969;50.780;7.726;2023-04-29T11:06:22;15.20;;;13.38;;
11823;SDS011;5969;50.780;7.726;2023-04-29T11:09:01;14.35;;;12.85;;
11823;SDS011;5969;50.780;7.726;2023-04-29T11:11:52;15.95;;;14.15;;
11823;SDS011;5969;50.780;7.726;2023-04-29T11:14:28;15.00;;;13.40;;
11823;SDS011;5969;50.780;7.726;2023-04-29T11:16:57;17.77;;;14.95;;
11823;SDS011;5969;50.780;7.726;2023-04-29T11:19:27;19.00;;;15.82;;
11823;SDS011;5969;50.780;7.726;2023-04-29T11:22:05;19.40;;;16.25;;
11823;SDS011;5969;50.780;7.726;2023-04-29T11:24:47;18.95;;;16.08;;
11823;SDS011;5969;50.780;7.726;2023-04-29T11:27:15;24.02;;;16.38;;
11823;SDS011;5969;50.780;7.726;2023-04-29T11:29:49;21.33;;;17.50;;
11823;SDS011;5969;50.780;7.726;2023-04-29T11:32:19;21.35;;;16.35;;
11823;SDS011;5969;50.780;7.726;2023-04-29T11:34:47;19.98;;;16.95;;
11823;SDS011;5969;50.780;7.726;2023-04-29T11:37:18;19.60;;;16.00;;
11823;SDS011;5969;50.780;7.726;2023-04-29T11:39:46;19.73;;;16.10;;
11823;SDS011;5969;50.780;7.726;2023-04-29T11:42:18;17.75;;;15.38;;
11823;SDS011;5969;50.780;7.726;2023-04-29T11:44:49;17.45;;;15.57;;
11823;SDS011;5969;50.780;7.726;2023-04-29T11:47:18;16.08;;;14.35;;
11823;SDS011;5969;50.780;7.726;2023-04-29T11:49:46;17.08;;;13.48;;
11823;SDS011;5969;50.780;7.726;2023-04-29T11:52:13;15.50;;;13.32;;
11823;SDS011;5969;50.780;7.726;2023-04-29T11:54:41;16.38;;;14.05;;
11823;SDS011;5969;50.780;7.726;2023-04-29T11:57:09;16.40;;;12.82;;
11823;SDS011;5969;50.780;7.726;2023-04-29T11:59:40;16.77;;;12.93;;
11823;SDS011;5969;50.780;7.726;2023-04-29T12:02:11;16.63;;;12.93;;
11823;SDS011;5969;50.780;7.726;2023-04-29T12:04:44;13.70;;;12.30;;
11823;SDS011;5969;50.780;7.726;2023-04-29T12:07:13;13.07;;;11.73;;
11823;SDS011;5969;50.780;7.726;2023-04-29T12:09:47;12.60;;;11.30;;
11823;SDS011;5969;50.780;7.726;2023-04-29T12:12:22;11.60;;;10.40;;
11823;SDS011;5969;50.780;7.726;2023-04-29T12:14:54;13.07;;;10.30;;
11823;SDS011;5969;50.780;7.726;2023-04-29T12:17:35;10.70;;;9.57;;
11823;SDS011;5969;50.780;7.726;2023-04-29T12:20:06;10.43;;;8.90;;
11823;SDS011;5969;50.780;7.726;2023-04-29T12:22:37;10.90;;;9.75;;
11823;SDS011;5969;50.780;7.726;2023-04-29T12:25:06;10.52;;;8.63;;
11823;SDS011;5969;50.780;7.726;2023-04-29T12:27:35;9.90;;;8.90;;
11823;SDS011;5969;50.780;7.726;2023-04-29T12:30:05;9.20;;;8.30;;
11823;SDS011;5969;50.780;7.726;2023-04-29T12:32:40;11.60;;;9.80;;
11823;SDS011;5969;50.780;7.726;2023-04-29T12:35:18;9.50;;;8.55;;
11823;SDS011;5969;50.780;7.726;2023-04-29T12:37:48;9.27;;;8.35;;
11823;SDS011;5969;50.780;7.726;2023-04-29T12:40:18;9.15;;;8.27;;
11823;SDS011;5969;50.780;7.726;2023-04-29T12:42:52;9.55;;;8.23;;
11823;SDS011;5969;50.780;7.726;2023-04-29T12:45:28;9.77;;;8.15;;
11823;SDS011;5969;50.780;7.726;2023-04-29T12:48:00;9.48;;;8.07;;
11823;SDS011;5969;50.780;7.726;2023-04-29T12:50:32;8.68;;;7.78;;
11823;SDS011;5969;50.780;7.726;2023-04-29T12:53:05;8.98;;;8.07;;
11823;SDS011;5969;50.780;7.726;2023-04-29T12:55:34;8.80;;;7.90;;
11823;SDS011;5969;50.780;7.726;2023-04-29T12:58:02;8.80;;;7.97;;
11823;SDS011;5969;50.780;7.726;2023-04-29T13:00:34;9.05;;;8.15;;
11823;SDS011;5969;50.780;7.726;2023-04-29T13:03:13;9.20;;;8.30;;
11823;SDS011;5969;50.780;7.726;2023-04-29T13:05:42;9.57;;;8.65;;
11823;SDS011;5969;50.780;7.726;2023-04-29T13:08:10;9.30;;;8.40;;
11823;SDS011;5969;50.780;7.726;2023-04-29T13:10:39;9.30;;;8.40;;
11823;SDS011;5969;50.780;7.726;2023-04-29T13:13:06;9.07;;;8.05;;
11823;SDS011;5969;50.780;7.726;2023-04-29T13:15:33;10.30;;;8.35;;
11823;SDS011;5969;50.780;7.726;2023-04-29T13:18:00;9.95;;;7.97;;
11823;SDS011;5969;50.780;7.726;2023-04-29T13:20:29;10.50;;;8.98;;
11823;SDS011;5969;50.780;7.726;2023-04-29T13:22:58;9.15;;;8.25;;
11823;SDS011;5969;50.780;7.726;2023-04-29T13:25:27;8.68;;;7.72;;
11823;SDS011;5969;50.780;7.726;2023-04-29T13:27:54;9.60;;;7.95;;
11823;SDS011;5969;50.780;7.726;2023-04-29T13:30:22;8.38;;;7.53;;
11823;SDS011;5969;50.780;7.726;2023-04-29T13:32:50;10.82;;;7.80;;
11823;SDS011;5969;50.780;7.726;2023-04-29T13:35:17;8.63;;;7.75;;
11823;SDS011;5969;50.780;7.726;2023-04-29T13:37:49;8.32;;;7.47;;
11823;SDS011;5969;50.780;7.726;2023-04-29T13:40:16;8.93;;;7.72;;
11823;SDS011;5969;50.780;7.726;2023-04-29T13:42:43;8.27;;;7.47;;
11823;SDS011;5969;50.780;7.726;2023-04-29T13:45:13;9.02;;;8.05;;
11823;SDS011;5969;50.780;7.726;2023-04-29T13:47:41;9.18;;;8.25;;
11823;SDS011;5969;50.780;7.726;2023-04-29T13:50:08;8.70;;;7.82;;
11823;SDS011;5969;50.780;7.726;2023-04-29T13:52:35;12.30;;;8.85;;
11823;SDS011;5969;50.780;7.726;2023-04-29T13:55:06;8.93;;;8.05;;
11823;SDS011;5969;50.780;7.726;2023-04-29T13:57:33;8.80;;;7.65;;
11823;SDS011;5969;50.780;7.726;2023-04-29T14:00:00;10.18;;;8.75;;
11823;SDS011;5969;50.780;7.726;2023-04-29T14:02:27;10.40;;;8.80;;
11823;SDS011;5969;50.780;7.726;2023-04-29T14:04:54;8.75;;;7.85;;
11823;SDS011;5969;50.780;7.726;2023-04-29T14:07:21;11.00;;;9.90;;
11823;SDS011;5969;50.780;7.726;2023-04-29T14:09:48;9.70;;;8.10;;
11823;SDS011;5969;50.780;7.726;2023-04-29T14:12:17;11.50;;;9.50;;
11823;SDS011;5969;50.780;7.726;2023-04-29T14:14:44;11.68;;;10.05;;
11823;SDS011;5969;50.780;7.726;2023-04-29T14:17:12;9.65;;;8.27;;
11823;SDS011;5969;50.780;7.726;2023-04-29T14:19:38;9.65;;;8.55;;
11823;SDS011;5969;50.780;7.726;2023-04-29T14:22:05;9.15;;;8.23;;
11823;SDS011;5969;50.780;7.726;2023-04-29T14:24:32;10.55;;;8.73;;
11823;SDS011;5969;50.780;7.726;2023-04-29T14:26:59;9.68;;;8.68;;
11823;SDS011;5969;50.780;7.726;2023-04-29T14:29:29;10.05;;;8.95;;
11823;SDS011;5969;50.780;7.726;2023-04-29T14:31:55;10.13;;;9.07;;
11823;SDS011;5969;50.780;7.726;2023-04-29T14:34:22;10.77;;;9.25;;
11823;SDS011;5969;50.780;7.726;2023-04-29T14:36:49;11.02;;;9.57;;
11823;SDS011;5969;50.780;7.726;2023-04-29T14:39:17;11.38;;;9.98;;
11823;SDS011;5969;50.780;7.726;2023-04-29T14:41:44;11.52;;;9.98;;
11823;SDS011;5969;50.780;7.726;2023-04-29T14:44:16;11.57;;;9.88;;
11823;SDS011;5969;50.780;7.726;2023-04-29T14:46:45;10.98;;;9.73;;
11823;SDS011;5969;50.780;7.726;2023-04-29T14:49:12;14.30;;;9.63;;
11823;SDS011;5969;50.780;7.726;2023-04-29T14:51:38;10.98;;;9.68;;
11823;SDS011;5969;50.780;7.726;2023-04-29T14:54:05;12.63;;;10.13;;
11823;SDS011;5969;50.780;7.726;2023-04-29T14:56:33;11.73;;;10.50;;
11823;SDS011;5969;50.780;7.726;2023-04-29T14:59:01;11.10;;;9.90;;
11823;SDS011;5969;50.780;7.726;2023-04-29T15:01:30;12.18;;;10.38;;
11823;SDS011;5969;50.780;7.726;2023-04-29T15:03:59;13.68;;;10.68;;
11823;SDS011;5969;50.780;7.726;2023-04-29T15:06:28;11.57;;;10.38;;
11823;SDS011;5969;50.780;7.726;2023-04-29T15:08:56;10.65;;;9.57;;
11823;SDS011;5969;50.780;7.726;2023-04-29T15:11:23;12.73;;;10.45;;
11823;SDS011;5969;50.780;7.726;2023-04-29T15:13:50;12.45;;;10.50;;
11823;SDS011;5969;50.780;7.726;2023-04-29T15:16:16;11.52;;;10.38;;